createdAt,value
2019-01-20T00:00:39.401Z,16.47
2019-01-20T00:03:07.172Z,20.00
2019-01-20T00:05:34.672Z,17.20
2019-01-20T00:08:02.387Z,15.93
2019-01-20T00:10:29.867Z,15.27
2019-01-20T00:12:57.512Z,19.73
2019-01-20T00:15:25.181Z,18.17
2019-01-20T00:17:52.712Z,17.93
2019-01-20T00:20:20.477Z,20.57
2019-01-20T00:26:01.982Z,18.90
2019-01-20T00:28:29.596Z,21.10
2019-01-20T00:30:57.211Z,16.13
2019-01-20T00:34:05.889Z,18.70
2019-01-20T00:36:33.534Z,17.27
2019-01-20T00:39:01.089Z,20.63
2019-01-20T00:41:59.002Z,21.23
2019-01-20T00:44:26.556Z,17.40
2019-01-20T00:46:54.211Z,16.80
2019-01-20T00:49:21.762Z,20.20
2019-01-20T00:51:49.882Z,16.87
2019-01-20T00:54:17.722Z,19.27
2019-01-20T00:56:45.624Z,17.40
2019-01-20T00:59:13.164Z,17.20
2019-01-20T01:01:40.761Z,17.80
2019-01-20T01:04:08.566Z,16.33
2019-01-20T01:06:36.082Z,19.30
2019-01-20T01:09:06.107Z,21.43
2019-01-20T01:11:33.672Z,15.10
2019-01-20T01:14:01.213Z,19.20
2019-01-20T01:16:29.270Z,16.93
2019-01-20T01:18:56.867Z,19.67
2019-01-20T01:21:24.281Z,17.50
2019-01-20T01:23:51.962Z,16.10
2019-01-20T01:26:19.670Z,16.87
2019-01-20T01:28:47.222Z,19.63
2019-01-20T01:31:14.644Z,21.03
2019-01-20T01:33:42.111Z,14.67
2019-01-20T01:36:09.536Z,17.23
2019-01-20T01:38:37.007Z,15.70
2019-01-20T01:41:04.418Z,17.43
2019-01-20T01:43:32.502Z,20.50
2019-01-20T01:45:59.911Z,15.90
2019-01-20T01:48:27.382Z,17.13
2019-01-20T01:50:54.782Z,17.03
2019-01-20T01:53:22.256Z,18.40
2019-01-20T01:55:49.632Z,17.90
2019-01-20T01:58:17.047Z,16.10
2019-01-20T02:00:44.477Z,16.23
2019-01-20T02:03:11.952Z,13.10
2019-01-20T02:05:39.401Z,14.03
2019-01-20T02:08:06.892Z,17.97
2019-01-20T02:10:34.546Z,13.93
2019-01-20T02:13:01.981Z,15.27
2019-01-20T02:15:29.491Z,12.40
2019-01-20T02:17:56.889Z,15.73
2019-01-20T02:20:24.586Z,15.33
2019-01-20T02:22:52.322Z,14.37
2019-01-20T02:25:19.766Z,13.93
2019-01-20T02:27:47.145Z,14.97
2019-01-20T02:30:21.262Z,13.87
2019-01-20T02:32:48.701Z,14.80
2019-01-20T02:35:16.392Z,11.23
2019-01-20T02:37:43.803Z,12.53
2019-01-20T02:40:11.605Z,10.80
2019-01-20T02:42:38.998Z,14.93
2019-01-20T02:45:07.431Z,14.87
2019-01-20T02:47:34.838Z,11.53
2019-01-20T02:50:02.332Z,12.87
2019-01-20T02:52:29.742Z,13.60
2019-01-20T02:54:57.196Z,11.57
2019-01-20T02:57:24.608Z,10.40
2019-01-20T02:59:52.095Z,11.40
2019-01-20T03:02:19.542Z,12.80
2019-01-20T03:04:47.049Z,11.57
2019-01-20T03:07:14.451Z,10.70
2019-01-20T03:09:41.933Z,11.73
2019-01-20T03:12:09.461Z,11.77
2019-01-20T03:14:36.963Z,12.43
2019-01-20T03:17:04.479Z,16.83
2019-01-20T03:19:32.180Z,13.10
2019-01-20T03:21:59.632Z,14.90
2019-01-20T03:24:32.896Z,13.33
2019-01-20T03:27:00.681Z,13.37
2019-01-20T03:29:28.103Z,15.57
2019-01-20T03:31:55.589Z,14.10
2019-01-20T03:34:23.026Z,12.97
2019-01-20T03:36:50.471Z,13.10
2019-01-20T03:39:17.882Z,15.43
2019-01-20T03:41:45.347Z,13.70
2019-01-20T03:44:12.726Z,16.13
2019-01-20T03:46:40.199Z,14.47
2019-01-20T03:50:40.791Z,15.77
2019-01-20T03:54:06.897Z,10.40
2019-01-20T04:01:13.350Z,10.50
2019-01-20T04:11:55.404Z,12.07
2019-01-20T04:14:59.995Z,15.37
2019-01-20T04:30:33.625Z,14.13
2019-01-20T04:38:01.961Z,15.07
2019-01-20T04:40:57.371Z,14.80
2019-01-20T04:43:53.354Z,11.90
2019-01-20T04:46:40.100Z,14.87
2019-01-20T04:49:35.179Z,10.47
2019-01-20T04:52:38.021Z,12.43
2019-01-20T05:04:00.340Z,11.33
2019-01-20T05:11:21.304Z,13.93
2019-01-20T05:24:32.695Z,12.43
2019-01-20T05:34:10.768Z,14.50
2019-01-20T05:37:20.882Z,14.47
2019-01-20T05:40:42.307Z,13.60
2019-01-20T05:43:34.956Z,12.00
2019-01-20T05:46:57.610Z,19.03
2019-01-20T05:50:39.382Z,15.00
2019-01-20T06:04:55.922Z,12.13
2019-01-20T06:08:55.047Z,13.73
2019-01-20T06:12:02.479Z,12.70
2019-01-20T06:25:57.592Z,11.90
2019-01-20T06:34:09.985Z,13.23
2019-01-20T07:09:26.550Z,13.97
2019-01-20T07:25:20.585Z,18.07
2019-01-20T07:28:47.766Z,16.43
2019-01-20T07:32:07.359Z,21.50
2019-01-20T07:42:36.204Z,20.47
2019-01-20T07:46:12.611Z,20.53
2019-01-20T07:49:55.256Z,14.73
2019-01-20T08:25:53.545Z,15.80
2019-01-20T08:29:03.623Z,13.93
2019-01-20T08:35:43.338Z,15.47
2019-01-20T08:38:46.473Z,13.83
2019-01-20T08:45:09.505Z,14.40
2019-01-20T08:48:40.283Z,17.37
2019-01-20T08:52:02.725Z,16.77
2019-01-20T08:54:50.590Z,17.83
2019-01-20T08:57:51.715Z,19.80
2019-01-20T09:00:52.049Z,15.03
2019-01-20T09:04:00.894Z,18.43
2019-01-20T09:06:31.080Z,16.53
2019-01-20T09:09:01.860Z,16.97
2019-01-20T09:11:34.561Z,18.30
2019-01-20T09:14:11.259Z,17.77
2019-01-20T09:16:43.740Z,20.13
2019-01-20T09:19:13.423Z,17.63
2019-01-20T09:21:40.930Z,17.33
2019-01-20T09:24:08.330Z,17.07
2019-01-20T09:26:35.881Z,14.83
2019-01-20T09:29:03.365Z,17.77
2019-01-20T09:31:31.306Z,15.43
2019-01-20T09:33:58.725Z,17.13
2019-01-20T09:36:26.180Z,18.43
2019-01-20T09:38:53.584Z,16.90
2019-01-20T09:41:21.103Z,16.30
2019-01-20T09:43:48.486Z,17.17
2019-01-20T09:46:16.355Z,20.50
2019-01-20T09:48:43.966Z,20.40
2019-01-20T09:51:11.445Z,18.60
2019-01-20T09:53:38.850Z,16.80
2019-01-20T09:56:06.300Z,18.27
2019-01-20T09:58:33.770Z,17.43
2019-01-20T10:01:01.222Z,19.13
2019-01-20T10:03:28.710Z,16.57
2019-01-20T10:05:56.279Z,20.27
2019-01-20T10:08:23.736Z,18.53
2019-01-20T10:10:51.218Z,17.77
2019-01-20T10:13:18.660Z,21.80
2019-01-20T10:15:46.065Z,17.53
2019-01-20T10:18:13.537Z,15.80
2019-01-20T10:20:40.950Z,20.47
2019-01-20T10:23:08.399Z,18.77
2019-01-20T10:25:35.862Z,16.37
2019-01-20T10:28:04.930Z,19.93
2019-01-20T10:30:34.010Z,19.47
2019-01-20T10:33:01.455Z,20.83
2019-01-20T10:35:33.355Z,20.67
2019-01-20T10:38:03.610Z,21.93
2019-01-20T10:40:32.298Z,17.87
2019-01-20T10:42:59.872Z,19.13
2019-01-20T10:45:27.270Z,18.63
2019-01-20T10:47:54.760Z,19.23
2019-01-20T10:50:22.286Z,16.17
2019-01-20T10:52:49.715Z,16.20
2019-01-20T10:55:17.150Z,18.83
2019-01-20T10:57:44.630Z,15.67
2019-01-20T11:00:16.175Z,15.77
2019-01-20T11:02:43.605Z,18.13
2019-01-20T11:05:11.366Z,17.13
2019-01-20T11:07:38.810Z,18.07
2019-01-20T11:10:07.106Z,20.83
2019-01-20T11:12:34.571Z,14.10
2019-01-20T11:15:02.006Z,16.30
2019-01-20T11:17:29.455Z,16.83
2019-01-20T11:19:56.850Z,17.50
2019-01-20T11:22:24.265Z,15.60
2019-01-20T11:24:51.730Z,16.43
2019-01-20T11:27:19.150Z,17.80
2019-01-20T11:29:46.585Z,18.40
2019-01-20T11:32:14.105Z,17.43
2019-01-20T11:34:41.575Z,19.57
2019-01-20T11:37:08.989Z,18.17
2019-01-20T11:39:36.435Z,15.23
2019-01-20T11:42:03.930Z,16.43
2019-01-20T11:44:31.390Z,15.80
2019-01-20T11:46:58.819Z,15.87
2019-01-20T11:49:26.308Z,15.47
2019-01-20T11:51:53.825Z,18.10
2019-01-20T11:54:21.285Z,14.80
2019-01-20T11:56:48.735Z,12.87
2019-01-20T11:59:16.890Z,16.33
2019-01-20T12:01:44.290Z,14.47
2019-01-20T12:04:11.751Z,13.97
2019-01-20T12:06:39.276Z,13.83
2019-01-20T12:09:07.943Z,12.97
2019-01-20T12:11:35.365Z,13.03
2019-01-20T12:14:02.825Z,9.67
2019-01-20T12:16:30.269Z,12.50
2019-01-20T12:18:57.725Z,12.37
2019-01-20T12:21:25.150Z,13.73
2019-01-20T12:23:52.746Z,13.07
2019-01-20T12:26:20.412Z,12.10
2019-01-20T12:28:47.870Z,14.07
2019-01-20T12:31:15.236Z,10.40
2019-01-20T12:33:42.719Z,11.37
2019-01-20T12:36:10.160Z,12.13
2019-01-20T12:38:37.648Z,11.73
2019-01-20T12:41:05.073Z,13.80
2019-01-20T12:43:32.538Z,15.67
2019-01-20T12:45:59.984Z,14.33
2019-01-20T12:48:27.504Z,14.83
2019-01-20T12:50:54.916Z,14.00
2019-01-20T12:53:22.378Z,11.57
2019-01-20T12:55:49.769Z,11.57
2019-01-20T12:58:17.296Z,14.40
2019-01-20T13:00:44.821Z,12.20
2019-01-20T13:03:12.260Z,13.97
2019-01-20T13:05:39.825Z,14.80
2019-01-20T13:08:07.350Z,10.77
2019-01-20T13:10:34.818Z,12.80
2019-01-20T13:13:02.277Z,10.67
2019-01-20T13:15:29.801Z,11.57
2019-01-20T13:17:57.344Z,11.43
2019-01-20T13:20:25.106Z,9.43
2019-01-20T13:22:52.678Z,9.10
2019-01-20T13:25:22.102Z,10.00
2019-01-20T13:27:49.578Z,10.13
2019-01-20T13:30:18.861Z,10.93
2019-01-20T13:32:46.391Z,11.17
2019-01-20T13:35:14.656Z,10.60
2019-01-20T13:37:44.976Z,7.27
2019-01-20T13:40:15.891Z,10.03
2019-01-20T13:42:43.311Z,12.60
2019-01-20T13:45:11.327Z,9.43
2019-01-20T13:47:38.800Z,11.00
2019-01-20T13:50:09.181Z,9.83
2019-01-20T13:52:36.591Z,12.47
2019-01-20T13:55:05.106Z,11.77
2019-01-20T13:57:32.501Z,8.40
2019-01-20T13:59:59.956Z,10.10
2019-01-20T14:02:27.346Z,8.83
2019-01-20T14:04:54.877Z,8.90
2019-01-20T14:08:09.248Z,9.63
2019-01-20T14:11:00.723Z,8.87
2019-01-20T14:14:08.825Z,11.13
2019-01-20T14:17:06.300Z,7.37
2019-01-20T14:19:33.830Z,8.17
2019-01-20T14:22:07.627Z,9.30
2019-01-20T14:25:04.135Z,9.10
2019-01-20T14:27:40.771Z,8.13
2019-01-20T14:30:52.040Z,9.50
2019-01-20T14:38:15.185Z,9.93
2019-01-20T16:17:37.210Z,8.80
2019-01-20T16:20:33.278Z,11.40
2019-01-20T16:23:35.359Z,9.73
2019-01-20T16:26:16.197Z,11.67
2019-01-20T16:29:00.640Z,8.67
2019-01-20T16:31:58.725Z,14.87
2019-01-20T16:34:36.315Z,21.47
2019-01-20T16:37:29.458Z,22.90
2019-01-20T16:40:18.520Z,13.60
2019-01-20T16:43:11.826Z,11.90
2019-01-20T16:45:47.357Z,13.80
2019-01-20T16:54:06.157Z,13.10
2019-01-20T16:57:06.905Z,13.17
2019-01-20T17:01:25.620Z,12.43
2019-01-20T17:02:46.135Z,18.23
2019-01-20T17:06:04.500Z,14.87
2019-01-20T17:08:50.876Z,36.40
2019-01-20T17:11:37.956Z,30.37
2019-01-20T17:14:19.130Z,25.00
2019-01-20T17:17:00.191Z,25.50
2019-01-20T17:19:49.575Z,21.80
2019-01-20T17:22:23.866Z,21.53
2019-01-20T17:24:58.341Z,21.80
2019-01-20T17:27:28.275Z,25.33
2019-01-20T17:29:56.871Z,25.30
2019-01-20T17:32:26.840Z,27.53
2019-01-20T17:35:00.696Z,29.23
2019-01-20T17:40:26.560Z,30.20
2019-01-20T17:43:07.159Z,36.10
2019-01-20T17:45:46.891Z,36.20
2019-01-20T17:48:12.326Z,36.03
2019-01-20T17:50:53.880Z,38.03
2019-01-20T17:53:36.267Z,35.50
2019-01-20T17:56:04.515Z,35.50
2019-01-20T17:58:32.944Z,41.23
2019-01-20T18:01:04.827Z,35.13
2019-01-20T18:03:33.152Z,37.90
2019-01-20T18:06:07.922Z,36.20
2019-01-20T18:08:41.252Z,35.67
2019-01-20T18:11:09.976Z,38.77
2019-01-20T18:13:38.391Z,37.67
2019-01-20T18:16:25.861Z,42.00
2019-01-20T18:19:18.985Z,34.70
2019-01-20T18:21:52.985Z,34.03
2019-01-20T18:24:23.505Z,42.50
2019-01-20T18:26:53.990Z,37.27
2019-01-20T18:29:36.420Z,39.63
2019-01-20T18:32:06.105Z,38.40
2019-01-20T18:35:04.235Z,41.73
2019-01-20T18:37:46.427Z,37.53
2019-01-20T18:40:22.555Z,40.13
2019-01-20T18:42:57.251Z,40.40
2019-01-20T18:45:28.096Z,35.50
2019-01-20T18:47:56.560Z,35.00
2019-01-20T18:50:30.432Z,36.33
2019-01-20T18:53:00.796Z,41.30
2019-01-20T18:55:31.717Z,78.23
2019-01-20T18:58:09.734Z,81.53
2019-01-20T19:01:00.002Z,59.10
2019-01-20T19:03:28.486Z,52.70
2019-01-20T19:06:02.333Z,58.77
2019-01-20T19:08:36.190Z,58.73
2019-01-20T19:11:04.835Z,48.70
2019-01-20T19:13:33.432Z,40.43
2019-01-20T19:16:14.479Z,38.10
2019-01-20T19:18:43.720Z,40.17
2019-01-20T19:21:29.195Z,37.33
2019-01-20T19:24:02.592Z,35.33
2019-01-20T19:26:31.645Z,38.77
2019-01-20T19:29:05.667Z,41.07
2019-01-20T19:31:36.876Z,45.30
2019-01-20T19:34:05.266Z,39.90
2019-01-20T19:36:33.905Z,40.60
2019-01-20T19:39:02.736Z,43.07
2019-01-20T19:41:31.101Z,42.47
2019-01-20T19:44:00.957Z,47.63
2019-01-20T19:46:32.495Z,49.07
2019-01-20T19:49:02.171Z,50.47
2019-01-20T19:51:30.547Z,45.63
2019-01-20T19:53:59.187Z,52.73
2019-01-20T19:56:28.245Z,48.83
2019-01-20T19:58:59.909Z,53.53
2019-01-20T20:01:30.871Z,45.73
2019-01-20T20:04:02.823Z,47.47
2019-01-20T20:06:34.517Z,51.63
2019-01-20T20:09:25.900Z,49.33
2019-01-20T20:12:00.130Z,56.63
2019-01-20T20:14:31.970Z,57.13
2019-01-20T20:17:07.915Z,56.73
2019-01-20T20:19:42.909Z,57.43
2019-01-20T20:22:14.804Z,49.97
2019-01-20T20:24:58.099Z,54.00
2019-01-20T20:27:42.662Z,58.87
2019-01-20T20:30:25.302Z,51.03
2019-01-20T20:33:23.036Z,51.70
2019-01-20T20:36:00.665Z,55.30
2019-01-20T20:38:38.719Z,50.60
2019-01-20T20:41:45.129Z,49.83
2019-01-20T20:44:32.646Z,51.37
2019-01-20T20:47:11.425Z,50.23
2019-01-20T20:50:00.430Z,55.60
2019-01-20T20:52:46.212Z,52.97
2019-01-20T20:55:34.166Z,52.83
2019-01-20T20:58:30.365Z,52.70
2019-01-20T21:01:30.660Z,64.13
2019-01-20T21:04:18.952Z,59.80
2019-01-20T21:07:18.814Z,60.37
2019-01-20T21:14:24.440Z,56.43
2019-01-20T21:17:00.067Z,58.30
2019-01-20T21:22:59.469Z,51.70
2019-01-20T21:25:41.630Z,55.93
2019-01-20T21:29:09.470Z,55.00
2019-01-20T21:32:09.591Z,51.00
2019-01-20T21:34:59.165Z,57.47
2019-01-20T21:37:26.955Z,65.53
2019-01-20T21:39:54.732Z,70.43
2019-01-20T21:42:22.561Z,62.50
2019-01-20T21:44:50.061Z,52.40
2019-01-20T21:47:17.757Z,52.27
2019-01-20T21:49:45.367Z,54.33
2019-01-20T21:52:12.886Z,58.43
2019-01-20T21:54:40.326Z,47.30
2019-01-20T21:57:07.826Z,53.60
2019-01-20T21:59:35.331Z,51.67
2019-01-20T22:02:03.181Z,49.20
2019-01-20T22:04:30.576Z,57.23
2019-01-20T22:06:58.088Z,49.70
2019-01-20T22:09:25.936Z,53.37
2019-01-20T22:11:53.417Z,52.73
2019-01-20T22:14:20.822Z,44.27
2019-01-20T22:16:52.684Z,53.10
2019-01-20T22:19:17.591Z,48.87
2019-01-20T22:21:45.081Z,48.97
2019-01-20T22:24:12.487Z,47.83
2019-01-20T22:26:39.922Z,52.00
2019-01-20T22:29:07.355Z,47.53
2019-01-20T22:31:36.072Z,49.23
2019-01-20T22:34:03.621Z,49.63
2019-01-20T22:36:31.037Z,45.97
2019-01-20T22:38:58.502Z,46.83
2019-01-20T22:41:25.902Z,49.83
2019-01-20T22:43:53.499Z,54.73
2019-01-20T22:46:20.966Z,47.93
2019-01-20T22:48:48.436Z,45.77
2019-01-20T22:51:15.882Z,48.13
2019-01-20T22:53:45.447Z,51.23
2019-01-20T22:56:12.854Z,44.87
2019-01-20T22:58:40.301Z,43.17
2019-01-20T23:01:20.035Z,43.00
2019-01-20T23:03:47.516Z,48.07
2019-01-20T23:06:14.982Z,41.47
2019-01-20T23:08:42.437Z,46.00
2019-01-20T23:11:09.879Z,47.13
2019-01-20T23:13:37.326Z,47.93
2019-01-20T23:16:04.831Z,55.77
2019-01-20T23:18:32.272Z,50.63
2019-01-20T23:20:59.702Z,45.97
2019-01-20T23:23:27.147Z,50.23
2019-01-20T23:25:54.546Z,47.80
2019-01-20T23:28:22.011Z,51.43
2019-01-20T23:30:49.406Z,43.30
2019-01-20T23:33:16.852Z,57.17
2019-01-20T23:35:44.267Z,49.07
2019-01-20T23:38:11.717Z,50.23
2019-01-20T23:40:39.116Z,46.23
2019-01-20T23:43:06.680Z,48.40
2019-01-20T23:45:34.129Z,48.30
2019-01-20T23:48:01.593Z,51.17
2019-01-20T23:50:29.035Z,43.67
2019-01-20T23:52:56.451Z,48.90
2019-01-20T23:55:23.938Z,48.33
2019-01-20T23:57:51.364Z,51.40
